Terminal Aerodrome Forecast
Issued by NWS

Home | Current Version | Previous Version | Text Only | Print | Product List | Glossary Off
Versions: 1 2 3 4 5 6 7 8 9 10 11 12 13 14 15 16 17 18 19

000
FTUS43 KTOP 161400 AAA
TAFMHK
TAF AMD
KMHK 161433Z 1615/1712 33013KT P6SM OVC019
     FM161800 33010KT P6SM SCT025
     FM162300 36004KT P6SM SCT030 SCT200=

USA.gov is the U.S. government's official web portal to all federal, state and local government web resources and services.